sensor_id;sensor_type;location;lat;lon;timestamp;pressure;altitude;pressure_sealevel;temperature;humidity
23172;BME280;11754;42.664;23.594;2022-09-09T00:02:22;95637.91;;;18.35;62.83
23172;BME280;11754;42.664;23.594;2022-09-09T00:07:49;95644.94;;;18.36;63.18
23172;BME280;11754;42.664;23.594;2022-09-09T00:10:36;95641.03;;;18.32;63.19
23172;BME280;11754;42.664;23.594;2022-09-09T00:13:19;95633.47;;;18.16;63.84
23172;BME280;11754;42.664;23.594;2022-09-09T00:16:10;95637.19;;;18.15;64.22
23172;BME280;11754;42.664;23.594;2022-09-09T00:19:03;95634.53;;;18.08;64.34
23172;BME280;11754;42.664;23.594;2022-09-09T00:21:34;95632.25;;;18.05;64.32
23172;BME280;11754;42.664;23.594;2022-09-09T00:24:11;95628.97;;;18.03;64.33
23172;BME280;11754;42.664;23.594;2022-09-09T00:26:48;95615.63;;;18.03;64.13
23172;BME280;11754;42.664;23.594;2022-09-09T00:29:22;95625.28;;;18.11;64.00
23172;BME280;11754;42.664;23.594;2022-09-09T00:31:56;95621.19;;;18.01;64.29
23172;BME280;11754;42.664;23.594;2022-09-09T00:34:24;95621.59;;;17.98;64.42
23172;BME280;11754;42.664;23.594;2022-09-09T00:36:53;95615.06;;;17.88;64.53
23172;BME280;11754;42.664;23.594;2022-09-09T00:39:41;95628.19;;;17.89;64.66
23172;BME280;11754;42.664;23.594;2022-09-09T00:42:22;95619.56;;;17.87;64.56
23172;BME280;11754;42.664;23.594;2022-09-09T00:44:58;95603.16;;;17.84;64.70
23172;BME280;11754;42.664;23.594;2022-09-09T00:47:38;95614.47;;;17.86;64.61
23172;BME280;11754;42.664;23.594;2022-09-09T00:52:52;95598.63;;;17.84;64.44
23172;BME280;11754;42.664;23.594;2022-09-09T00:58:10;95592.06;;;17.67;64.65
23172;BME280;11754;42.664;23.594;2022-09-09T01:00:41;95605.22;;;17.68;65.00
23172;BME280;11754;42.664;23.594;2022-09-09T01:05:42;95612.19;;;17.63;65.25
23172;BME280;11754;42.664;23.594;2022-09-09T01:08:34;95618.38;;;17.57;65.74
23172;BME280;11754;42.664;23.594;2022-09-09T01:11:02;95598.66;;;17.44;65.91
23172;BME280;11754;42.664;23.594;2022-09-09T01:13:35;95607.47;;;17.51;65.73
23172;BME280;11754;42.664;23.594;2022-09-09T01:16:04;95605.22;;;17.48;65.71
23172;BME280;11754;42.664;23.594;2022-09-09T01:18:34;95608.91;;;17.47;65.70
23172;BME280;11754;42.664;23.594;2022-09-09T01:28:35;95616.50;;;17.37;65.95
23172;BME280;11754;42.664;23.594;2022-09-09T01:31:03;95617.13;;;17.39;65.79
23172;BME280;11754;42.664;23.594;2022-09-09T01:33:29;95601.94;;;17.33;65.69
23172;BME280;11754;42.664;23.594;2022-09-09T01:38:33;95595.41;;;17.42;65.54
23172;BME280;11754;42.664;23.594;2022-09-09T01:40:59;95603.81;;;17.39;65.19
23172;BME280;11754;42.664;23.594;2022-09-09T01:43:26;95599.50;;;17.38;65.13
23172;BME280;11754;42.664;23.594;2022-09-09T01:45:54;95599.06;;;17.41;65.01
23172;BME280;11754;42.664;23.594;2022-09-09T01:48:23;95595.38;;;17.36;65.13
23172;BME280;11754;42.664;23.594;2022-09-09T01:50:49;95594.16;;;17.25;65.15
23172;BME280;11754;42.664;23.594;2022-09-09T01:53:15;95611.78;;;17.33;65.06
23172;BME280;11754;42.664;23.594;2022-09-09T01:55:52;95610.75;;;17.27;65.13
23172;BME280;11754;42.664;23.594;2022-09-09T02:03:44;95613.41;;;17.00;66.00
23172;BME280;11754;42.664;23.594;2022-09-09T02:06:35;95622.03;;;17.02;66.16
23172;BME280;11754;42.664;23.594;2022-09-09T02:09:04;95627.78;;;17.06;66.08
23172;BME280;11754;42.664;23.594;2022-09-09T02:11:30;95629.81;;;17.04;66.40
23172;BME280;11754;42.664;23.594;2022-09-09T02:14:08;95618.28;;;16.90;66.68
23172;BME280;11754;42.664;23.594;2022-09-09T02:16:42;95622.19;;;16.94;66.76
23172;BME280;11754;42.664;23.594;2022-09-09T02:19:25;95617.69;;;16.88;67.33
23172;BME280;11754;42.664;23.594;2022-09-09T02:21:57;95620.34;;;16.81;67.37
23172;BME280;11754;42.664;23.594;2022-09-09T02:24:26;95621.56;;;16.79;67.35
23172;BME280;11754;42.664;23.594;2022-09-09T02:26:54;95608.41;;;16.71;67.68
23172;BME280;11754;42.664;23.594;2022-09-09T02:29:30;95617.81;;;16.67;68.25
23172;BME280;11754;42.664;23.594;2022-09-09T02:32:00;95612.06;;;16.63;68.42
23172;BME280;11754;42.664;23.594;2022-09-09T02:34:29;95611.25;;;16.63;68.46
23172;BME280;11754;42.664;23.594;2022-09-09T02:36:57;95611.84;;;16.65;68.23
23172;BME280;11754;42.664;23.594;2022-09-09T02:39:25;95607.13;;;16.60;68.25
23172;BME280;11754;42.664;23.594;2022-09-09T02:41:51;95600.34;;;16.57;68.07
23172;BME280;11754;42.664;23.594;2022-09-09T02:44:18;95614.13;;;16.68;67.70
23172;BME280;11754;42.664;23.594;2022-09-09T02:49:19;95613.97;;;16.76;67.34
23172;BME280;11754;42.664;23.594;2022-09-09T02:51:56;95602.69;;;16.74;67.22
23172;BME280;11754;42.664;23.594;2022-09-09T02:54:30;95601.06;;;16.79;66.97
23172;BME280;11754;42.664;23.594;2022-09-09T02:59:27;95613.78;;;16.84;66.86
23172;BME280;11754;42.664;23.594;2022-09-09T03:01:52;95616.66;;;16.83;66.35
23172;BME280;11754;42.664;23.594;2022-09-09T03:04:18;95611.53;;;16.81;66.42
23172;BME280;11754;42.664;23.594;2022-09-09T03:06:44;95615.00;;;16.81;66.28
23172;BME280;11754;42.664;23.594;2022-09-09T03:09:09;95620.72;;;16.78;66.65
23172;BME280;11754;42.664;23.594;2022-09-09T03:11:36;95620.31;;;16.75;66.61
23172;BME280;11754;42.664;23.594;2022-09-09T03:14:02;95614.53;;;16.71;66.70
23172;BME280;11754;42.664;23.594;2022-09-09T03:16:27;95596.47;;;16.60;66.96
23172;BME280;11754;42.664;23.594;2022-09-09T03:18:52;95610.63;;;16.61;67.09
23172;BME280;11754;42.664;23.594;2022-09-09T03:21:18;95620.63;;;16.52;67.35
23172;BME280;11754;42.664;23.594;2022-09-09T03:23:43;95613.00;;;16.42;67.23
23172;BME280;11754;42.664;23.594;2022-09-09T03:26:10;95626.53;;;16.47;67.35
23172;BME280;11754;42.664;23.594;2022-09-09T03:28:35;95631.66;;;16.42;67.71
23172;BME280;11754;42.664;23.594;2022-09-09T03:31:03;95609.91;;;16.32;67.98
23172;BME280;11754;42.664;23.594;2022-09-09T03:33:30;95613.59;;;16.31;67.99
23172;BME280;11754;42.664;23.594;2022-09-09T03:35:57;95627.09;;;16.36;67.81
23172;BME280;11754;42.664;23.594;2022-09-09T03:38:23;95620.91;;;16.22;68.35
23172;BME280;11754;42.664;23.594;2022-09-09T03:40:52;95624.19;;;16.24;68.55
23172;BME280;11754;42.664;23.594;2022-09-09T03:43:23;95636.25;;;16.20;68.80
23172;BME280;11754;42.664;23.594;2022-09-09T03:45:49;95625.38;;;16.15;68.98
23172;BME280;11754;42.664;23.594;2022-09-09T03:48:15;95635.44;;;16.20;68.81
23172;BME280;11754;42.664;23.594;2022-09-09T03:50:49;95618.38;;;16.07;69.08
23172;BME280;11754;42.664;23.594;2022-09-09T03:53:16;95622.50;;;16.10;68.94
23172;BME280;11754;42.664;23.594;2022-09-09T03:55:51;95619.44;;;16.13;68.90
23172;BME280;11754;42.664;23.594;2022-09-09T03:58:20;95634.41;;;16.21;68.74
23172;BME280;11754;42.664;23.594;2022-09-09T04:01:04;95628.06;;;16.22;68.59
23172;BME280;11754;42.664;23.594;2022-09-09T04:03:30;95630.31;;;16.18;68.38
23172;BME280;11754;42.664;23.594;2022-09-09T04:05:58;95621.75;;;16.23;68.65
23172;BME280;11754;42.664;23.594;2022-09-09T04:08:25;95614.34;;;16.18;68.69
23172;BME280;11754;42.664;23.594;2022-09-09T04:10:50;95612.75;;;16.24;68.58
23172;BME280;11754;42.664;23.594;2022-09-09T04:13:17;95623.00;;;16.27;68.32
23172;BME280;11754;42.664;23.594;2022-09-09T04:15:44;95625.88;;;16.32;68.00
23172;BME280;11754;42.664;23.594;2022-09-09T04:18:15;95617.88;;;16.32;67.85
23172;BME280;11754;42.664;23.594;2022-09-09T04:20:40;95640.47;;;16.49;67.88
23172;BME280;11754;42.664;23.594;2022-09-09T04:23:05;95629.19;;;16.47;67.54
23172;BME280;11754;42.664;23.594;2022-09-09T04:25:31;95635.63;;;16.60;67.29
23172;BME280;11754;42.664;23.594;2022-09-09T04:27:57;95640.16;;;16.72;66.94
23172;BME280;11754;42.664;23.594;2022-09-09T04:30:24;95624.00;;;16.74;66.64
23172;BME280;11754;42.664;23.594;2022-09-09T04:32:50;95626.88;;;16.79;66.51
23172;BME280;11754;42.664;23.594;2022-09-09T04:35:15;95639.41;;;16.85;66.14
23172;BME280;11754;42.664;23.594;2022-09-09T04:37:41;95630.19;;;16.81;66.57
23172;BME280;11754;42.664;23.594;2022-09-09T04:40:07;95632.84;;;16.81;66.71
23172;BME280;11754;42.664;23.594;2022-09-09T04:42:38;95631.00;;;16.88;66.20
23172;BME280;11754;42.664;23.594;2022-09-09T04:45:05;95632.44;;;16.97;66.63
23172;BME280;11754;42.664;23.594;2022-09-09T04:47:32;95617.50;;;16.96;66.14
23172;BME280;11754;42.664;23.594;2022-09-09T04:49:57;95641.09;;;17.06;66.11
23172;BME280;11754;42.664;23.594;2022-09-09T04:52:23;95629.41;;;17.14;65.66
23172;BME280;11754;42.664;23.594;2022-09-09T04:54:48;95637.00;;;17.17;65.72
23172;BME280;11754;42.664;23.594;2022-09-09T04:57:14;95635.97;;;17.18;65.43
23172;BME280;11754;42.664;23.594;2022-09-09T04:59:39;95631.88;;;17.22;65.71
23172;BME280;11754;42.664;23.594;2022-09-09T05:02:05;95629.41;;;17.27;66.04
23172;BME280;11754;42.664;23.594;2022-09-09T05:04:31;95626.97;;;17.32;66.06
23172;BME280;11754;42.664;23.594;2022-09-09T05:06:56;95628.38;;;17.41;65.79
23172;BME280;11754;42.664;23.594;2022-09-09T05:09:22;95630.88;;;17.49;65.56
23172;BME280;11754;42.664;23.594;2022-09-09T05:11:47;95612.41;;;17.61;65.65
23172;BME280;11754;42.664;23.594;2022-09-09T05:14:14;95621.63;;;17.72;65.64
23172;BME280;11754;42.664;23.594;2022-09-09T05:16:40;95605.22;;;17.82;65.57
23172;BME280;11754;42.664;23.594;2022-09-09T05:19:06;95604.38;;;17.94;65.43
23172;BME280;11754;42.664;23.594;2022-09-09T05:21:33;95603.72;;;18.06;65.39
23172;BME280;11754;42.664;23.594;2022-09-09T05:23:59;95611.69;;;18.19;65.07
23172;BME280;11754;42.664;23.594;2022-09-09T05:26:25;95612.91;;;18.30;64.89
23172;BME280;11754;42.664;23.594;2022-09-09T05:28:51;95612.00;;;18.42;64.57
23172;BME280;11754;42.664;23.594;2022-09-09T05:31:17;95590.63;;;18.49;64.33
23172;BME280;11754;42.664;23.594;2022-09-09T05:33:44;95597.50;;;18.70;64.40
23172;BME280;11754;42.664;23.594;2022-09-09T05:36:15;95589.91;;;18.73;64.45
23172;BME280;11754;42.664;23.594;2022-09-09T05:38:42;95591.53;;;18.81;64.07
23172;BME280;11754;42.664;23.594;2022-09-09T05:41:08;95608.06;;;18.96;63.74
23172;BME280;11754;42.664;23.594;2022-09-09T05:43:36;95603.88;;;19.07;63.58
23172;BME280;11754;42.664;23.594;2022-09-09T05:46:10;95594.34;;;19.18;62.85
23172;BME280;11754;42.664;23.594;2022-09-09T05:48:41;95603.34;;;19.30;62.63
23172;BME280;11754;42.664;23.594;2022-09-09T05:51:09;95607.78;;;19.36;61.83
23172;BME280;11754;42.664;23.594;2022-09-09T05:53:36;95604.88;;;19.44;61.01
23172;BME280;11754;42.664;23.594;2022-09-09T05:56:07;95606.81;;;19.56;60.13
23172;BME280;11754;42.664;23.594;2022-09-09T05:58:33;95604.22;;;19.74;59.75
23172;BME280;11754;42.664;23.594;2022-09-09T06:01:03;95613.91;;;19.93;58.74
23172;BME280;11754;42.664;23.594;2022-09-09T06:03:28;95591.31;;;20.08;57.96
23172;BME280;11754;42.664;23.594;2022-09-09T06:06:01;95582.25;;;20.27;57.19
23172;BME280;11754;42.664;23.594;2022-09-09T06:08:27;95600.69;;;20.54;56.64
23172;BME280;11754;42.664;23.594;2022-09-09T06:10:53;95596.94;;;20.73;55.53
23172;BME280;11754;42.664;23.594;2022-09-09T06:13:18;95597.22;;;20.83;54.83
23172;BME280;11754;42.664;23.594;2022-09-09T06:15:53;95602.41;;;20.97;54.10
23172;BME280;11754;42.664;23.594;2022-09-09T06:18:18;95601.72;;;21.13;53.50
23172;BME280;11754;42.664;23.594;2022-09-09T06:21:01;95592.94;;;21.24;52.40
23172;BME280;11754;42.664;23.594;2022-09-09T06:23:30;95602.19;;;21.40;52.07
23172;BME280;11754;42.664;23.594;2022-09-09T06:26:13;95619.25;;;21.69;51.34
23172;BME280;11754;42.664;23.594;2022-09-09T06:28:39;95603.50;;;21.84;50.65
23172;BME280;11754;42.664;23.594;2022-09-09T06:31:07;95609.59;;;22.15;50.41
23172;BME280;11754;42.664;23.594;2022-09-09T06:33:38;95594.28;;;22.27;49.48
23172;BME280;11754;42.664;23.594;2022-09-09T06:36:11;95608.16;;;22.48;48.86
23172;BME280;11754;42.664;23.594;2022-09-09T06:38:37;95599.22;;;22.59;48.81
23172;BME280;11754;42.664;23.594;2022-09-09T06:41:02;95603.94;;;22.81;46.68
23172;BME280;11754;42.664;23.594;2022-09-09T06:43:28;95570.13;;;22.85;46.91
23172;BME280;11754;42.664;23.594;2022-09-09T06:45:57;95612.91;;;23.26;46.94
23172;BME280;11754;42.664;23.594;2022-09-09T06:48:23;95612.09;;;23.43;46.44
23172;BME280;11754;42.664;23.594;2022-09-09T06:50:51;95610.47;;;23.59;45.21
23172;BME280;11754;42.664;23.594;2022-09-09T06:53:24;95602.22;;;23.65;45.14
23172;BME280;11754;42.664;23.594;2022-09-09T06:55:51;95600.63;;;23.81;44.68
23172;BME280;11754;42.664;23.594;2022-09-09T06:58:16;95595.06;;;23.88;42.86
23172;BME280;11754;42.664;23.594;2022-09-09T07:00:42;95589.50;;;23.94;43.52
23172;BME280;11754;42.664;23.594;2022-09-09T07:03:07;95593.72;;;24.07;42.86
23172;BME280;11754;42.664;23.594;2022-09-09T07:05:32;95609.75;;;24.36;42.48
23172;BME280;11754;42.664;23.594;2022-09-09T07:07:58;95611.09;;;24.55;43.19
23172;BME280;11754;42.664;23.594;2022-09-09T07:10:24;95612.72;;;24.78;42.35
23172;BME280;11754;42.664;23.594;2022-09-09T07:12:52;95608.00;;;24.90;42.29
23172;BME280;11754;42.664;23.594;2022-09-09T07:15:19;95601.72;;;25.07;41.13
23172;BME280;11754;42.664;23.594;2022-09-09T07:17:44;95595.38;;;25.18;40.31
23172;BME280;11754;42.664;23.594;2022-09-09T07:20:11;95599.28;;;25.32;39.89
23172;BME280;11754;42.664;23.594;2022-09-09T07:22:36;95596.81;;;25.31;40.75
23172;BME280;11754;42.664;23.594;2022-09-09T07:25:02;95587.69;;;25.32;39.79
23172;BME280;11754;42.664;23.594;2022-09-09T07:27:28;95595.59;;;25.44;40.34
23172;BME280;11754;42.664;23.594;2022-09-09T07:29:53;95601.41;;;25.57;39.83
23172;BME280;11754;42.664;23.594;2022-09-09T07:32:19;95595.31;;;25.72;39.85
23172;BME280;11754;42.664;23.594;2022-09-09T07:34:45;95597.13;;;25.99;39.84
23172;BME280;11754;42.664;23.594;2022-09-09T07:37:12;95587.19;;;26.09;38.34
23172;BME280;11754;42.664;23.594;2022-09-09T07:39:39;95586.69;;;26.12;38.89
23172;BME280;11754;42.664;23.594;2022-09-09T07:42:04;95589.75;;;26.31;38.40
23172;BME280;11754;42.664;23.594;2022-09-09T07:44:30;95596.69;;;26.65;37.87
23172;BME280;11754;42.664;23.594;2022-09-09T07:46:57;95596.75;;;26.80;37.80
23172;BME280;11754;42.664;23.594;2022-09-09T07:49:23;95588.16;;;27.03;37.84
23172;BME280;11754;42.664;23.594;2022-09-09T07:51:49;95577.88;;;27.05;36.69
23172;BME280;11754;42.664;23.594;2022-09-09T07:54:16;95587.69;;;27.17;36.47
23172;BME280;11754;42.664;23.594;2022-09-09T07:56:45;95577.34;;;27.08;37.00
23172;BME280;11754;42.664;23.594;2022-09-09T07:59:12;95580.63;;;27.26;36.60
23172;BME280;11754;42.664;23.594;2022-09-09T08:01:43;95602.34;;;27.62;36.85
23172;BME280;11754;42.664;23.594;2022-09-09T08:04:13;95576.88;;;27.63;36.04
23172;BME280;11754;42.664;23.594;2022-09-09T08:06:47;95585.00;;;27.83;36.69
23172;BME280;11754;42.664;23.594;2022-09-09T08:09:14;95589.88;;;28.01;36.08
23172;BME280;11754;42.664;23.594;2022-09-09T08:11:40;95574.06;;;28.34;36.01
23172;BME280;11754;42.664;23.594;2022-09-09T08:14:07;95583.16;;;28.79;35.07
23172;BME280;11754;42.664;23.594;2022-09-09T08:16:35;95588.41;;;29.15;34.70
23172;BME280;11754;42.664;23.594;2022-09-09T08:19:02;95578.00;;;29.27;34.45
23172;BME280;11754;42.664;23.594;2022-09-09T08:21:30;95587.22;;;29.71;33.46
23172;BME280;11754;42.664;23.594;2022-09-09T08:23:57;95581.19;;;30.37;33.08
23172;BME280;11754;42.664;23.594;2022-09-09T08:26:31;95575.66;;;30.90;31.72
23172;BME280;11754;42.664;23.594;2022-09-09T08:28:58;95568.25;;;31.33;31.14
23172;BME280;11754;42.664;23.594;2022-09-09T08:31:26;95578.06;;;32.33;30.03
23172;BME280;11754;42.664;23.594;2022-09-09T08:33:53;95582.00;;;33.09;28.64
23172;BME280;11754;42.664;23.594;2022-09-09T08:36:26;95557.50;;;33.54;27.76
23172;BME280;11754;42.664;23.594;2022-09-09T08:38:54;95563.31;;;34.06;27.26
23172;BME280;11754;42.664;23.594;2022-09-09T08:44:20;95568.91;;;35.21;25.96
23172;BME280;11754;42.664;23.594;2022-09-09T08:47:06;95551.97;;;35.45;25.70
23172;BME280;11754;42.664;23.594;2022-09-09T08:52:48;95561.25;;;36.22;24.95
23172;BME280;11754;42.664;23.594;2022-09-09T08:55:20;95556.50;;;36.48;23.63
23172;BME280;11754;42.664;23.594;2022-09-09T08:57:47;95556.88;;;36.21;24.19
23172;BME280;11754;42.664;23.594;2022-09-09T09:00:14;95557.03;;;36.24;24.19
23172;BME280;11754;42.664;23.594;2022-09-09T09:09:18;95537.81;;;37.97;22.86
23172;BME280;11754;42.664;23.594;2022-09-09T09:11:16;95537.06;;;38.33;21.93
23172;BME280;11754;42.664;23.594;2022-09-09T09:16:36;95536.44;;;38.49;21.94
23172;BME280;11754;42.664;23.594;2022-09-09T09:19:08;95536.94;;;38.05;22.35
23172;BME280;11754;42.664;23.594;2022-09-09T09:21:42;95535.47;;;38.20;22.13
23172;BME280;11754;42.664;23.594;2022-09-09T09:24:19;95532.91;;;38.03;21.96
23172;BME280;11754;42.664;23.594;2022-09-09T09:26:45;95533.97;;;37.77;22.37
23172;BME280;11754;42.664;23.594;2022-09-09T09:29:14;95539.63;;;37.60;22.27
23172;BME280;11754;42.664;23.594;2022-09-09T09:31:54;95533.38;;;37.30;22.72
23172;BME280;11754;42.664;23.594;2022-09-09T09:34:20;95526.88;;;37.34;23.38
23172;BME280;11754;42.664;23.594;2022-09-09T09:36:59;95536.41;;;37.37;23.57
23172;BME280;11754;42.664;23.594;2022-09-09T09:39:31;95526.34;;;37.62;22.40
23172;BME280;11754;42.664;23.594;2022-09-09T09:42:13;95539.59;;;38.26;22.05
23172;BME280;11754;42.664;23.594;2022-09-09T09:44:41;95531.63;;;38.45;21.70
23172;BME280;11754;42.664;23.594;2022-09-09T09:47:08;95532.75;;;38.44;22.39
23172;BME280;11754;42.664;23.594;2022-09-09T09:49:34;95537.63;;;38.02;22.16
23172;BME280;11754;42.664;23.594;2022-09-09T09:52:03;95519.69;;;37.96;22.07
23172;BME280;11754;42.664;23.594;2022-09-09T09:54:37;95521.28;;;38.42;22.24
23172;BME280;11754;42.664;23.594;2022-09-09T09:57:10;95521.84;;;38.48;22.08
23172;BME280;11754;42.664;23.594;2022-09-09T09:59:37;95520.00;;;38.40;22.04
23172;BME280;11754;42.664;23.594;2022-09-09T10:02:31;95519.19;;;38.27;22.42
23172;BME280;11754;42.664;23.594;2022-09-09T10:05:12;95516.44;;;38.39;21.91
23172;BME280;11754;42.664;23.594;2022-09-09T10:07:38;95512.09;;;38.51;22.15
23172;BME280;11754;42.664;23.594;2022-09-09T10:10:04;95504.97;;;38.86;21.89
23172;BME280;11754;42.664;23.594;2022-09-09T10:12:52;95503.81;;;39.00;21.61
23172;BME280;11754;42.664;23.594;2022-09-09T10:39:54;95513.69;;;38.39;21.91
23172;BME280;11754;42.664;23.594;2022-09-09T10:42:30;95515.72;;;37.72;22.69
23172;BME280;11754;42.664;23.594;2022-09-09T10:47:43;95514.38;;;37.58;22.60
23172;BME280;11754;42.664;23.594;2022-09-09T10:55:20;95515.75;;;37.10;23.79
23172;BME280;11754;42.664;23.594;2022-09-09T11:02:40;95501.31;;;35.42;25.77
23172;BME280;11754;42.664;23.594;2022-09-09T11:05:18;95515.69;;;35.22;26.18
23172;BME280;11754;42.664;23.594;2022-09-09T11:07:56;95504.72;;;35.04;26.41
23172;BME280;11754;42.664;23.594;2022-09-09T11:21:45;95515.25;;;33.91;27.85
23172;BME280;11754;42.664;23.594;2022-09-09T11:24:18;95512.84;;;33.67;28.08
23172;BME280;11754;42.664;23.594;2022-09-09T11:27:02;95515.22;;;33.38;28.94
23172;BME280;11754;42.664;23.594;2022-09-09T11:38:25;95513.97;;;32.71;28.85
23172;BME280;11754;42.664;23.594;2022-09-09T11:41:02;95490.28;;;32.81;29.13
23172;BME280;11754;42.664;23.594;2022-09-09T11:43:38;95484.97;;;33.12;29.03
23172;BME280;11754;42.664;23.594;2022-09-09T11:46:05;95476.91;;;33.52;28.50
23172;BME280;11754;42.664;23.594;2022-09-09T11:48:34;95494.06;;;33.75;28.14
23172;BME280;11754;42.664;23.594;2022-09-09T11:51:04;95474.06;;;33.43;28.16
23172;BME280;11754;42.664;23.594;2022-09-09T11:53:31;95459.44;;;33.16;28.60
23172;BME280;11754;42.664;23.594;2022-09-09T11:56:06;95442.47;;;32.92;29.12
23172;BME280;11754;42.664;23.594;2022-09-09T11:58:42;95457.50;;;32.81;29.41
23172;BME280;11754;42.664;23.594;2022-09-09T12:01:16;95467.84;;;32.70;29.34
23172;BME280;11754;42.664;23.594;2022-09-09T12:04:00;95463.91;;;32.76;29.23
23172;BME280;11754;42.664;23.594;2022-09-09T12:06:31;95445.19;;;32.69;29.29
23172;BME280;11754;42.664;23.594;2022-09-09T12:09:09;95444.69;;;32.67;29.42
23172;BME280;11754;42.664;23.594;2022-09-09T12:11:38;95426.03;;;32.47;29.32
23172;BME280;11754;42.664;23.594;2022-09-09T12:14:04;95427.84;;;32.38;29.50
23172;BME280;11754;42.664;23.594;2022-09-09T12:16:35;95439.78;;;32.42;29.79
23172;BME280;11754;42.664;23.594;2022-09-09T12:19:06;95437.63;;;32.52;29.70
23172;BME280;11754;42.664;23.594;2022-09-09T12:24:37;95452.47;;;32.60;29.60
23172;BME280;11754;42.664;23.594;2022-09-09T12:27:34;95442.91;;;32.99;29.98
23172;BME280;11754;42.664;23.594;2022-09-09T12:30:14;95431.59;;;33.37;29.28
23172;BME280;11754;42.664;23.594;2022-09-09T12:32:40;95430.63;;;33.33;29.38
23172;BME280;11754;42.664;23.594;2022-09-09T12:35:22;95431.53;;;33.06;29.26
23172;BME280;11754;42.664;23.594;2022-09-09T12:37:53;95421.13;;;32.71;29.68
23172;BME280;11754;42.664;23.594;2022-09-09T12:40:30;95415.59;;;32.49;30.20
23172;BME280;11754;42.664;23.594;2022-09-09T12:42:57;95423.22;;;32.24;30.87
23172;BME280;11754;42.664;23.594;2022-09-09T12:45:29;95402.22;;;32.11;30.82
23172;BME280;11754;42.664;23.594;2022-09-09T12:48:00;95408.56;;;32.20;29.93
23172;BME280;11754;42.664;23.594;2022-09-09T12:50:32;95413.78;;;32.30;30.34
23172;BME280;11754;42.664;23.594;2022-09-09T12:53:06;95407.91;;;32.65;29.66
23172;BME280;11754;42.664;23.594;2022-09-09T12:55:37;95392.13;;;32.98;29.41
23172;BME280;11754;42.664;23.594;2022-09-09T12:58:05;95393.44;;;33.32;28.66
23172;BME280;11754;42.664;23.594;2022-09-09T13:00:32;95395.19;;;33.28;29.09
23172;BME280;11754;42.664;23.594;2022-09-09T13:03:00;95391.34;;;33.29;29.40
23172;BME280;11754;42.664;23.594;2022-09-09T13:05:37;95385.25;;;33.32;29.17
23172;BME280;11754;42.664;23.594;2022-09-09T13:08:08;95373.44;;;33.45;29.15
23172;BME280;11754;42.664;23.594;2022-09-09T13:10:50;95392.81;;;33.57;28.55
23172;BME280;11754;42.664;23.594;2022-09-09T13:13:38;95390.13;;;33.66;28.18
23172;BME280;11754;42.664;23.594;2022-09-09T13:16:06;95390.66;;;33.85;27.79
23172;BME280;11754;42.664;23.594;2022-09-09T13:18:40;95394.63;;;34.10;27.96
23172;BME280;11754;42.664;23.594;2022-09-09T13:21:06;95379.88;;;34.46;28.27
23172;BME280;11754;42.664;23.594;2022-09-09T13:23:36;95384.44;;;34.77;27.27
23172;BME280;11754;42.664;23.594;2022-09-09T13:26:27;95389.13;;;34.67;27.06
23172;BME280;11754;42.664;23.594;2022-09-09T13:28:53;95385.25;;;34.68;27.47
23172;BME280;11754;42.664;23.594;2022-09-09T13:31:22;95380.59;;;34.78;27.44
23172;BME280;11754;42.664;23.594;2022-09-09T13:33:47;95391.34;;;34.83;27.09
23172;BME280;11754;42.664;23.594;2022-09-09T13:36:13;95379.94;;;34.81;27.46
23172;BME280;11754;42.664;23.594;2022-09-09T13:41:25;95371.53;;;34.68;27.81
23172;BME280;11754;42.664;23.594;2022-09-09T13:43:52;95368.03;;;34.77;27.85
23172;BME280;11754;42.664;23.594;2022-09-09T13:46:40;95384.75;;;35.01;27.19
23172;BME280;11754;42.664;23.594;2022-09-09T13:51:42;95372.78;;;35.32;27.33
23172;BME280;11754;42.664;23.594;2022-09-09T13:54:10;95362.13;;;35.30;27.61
23172;BME280;11754;42.664;23.594;2022-09-09T13:56:37;95360.25;;;34.96;27.70
23172;BME280;11754;42.664;23.594;2022-09-09T13:59:05;95358.66;;;34.60;27.60
23172;BME280;11754;42.664;23.594;2022-09-09T14:01:30;95364.06;;;34.17;28.10
23172;BME280;11754;42.664;23.594;2022-09-09T14:03:56;95361.66;;;33.76;28.58
23172;BME280;11754;42.664;23.594;2022-09-09T14:06:22;95352.28;;;33.59;29.03
23172;BME280;11754;42.664;23.594;2022-09-09T14:08:51;95353.09;;;33.60;29.23
23172;BME280;11754;42.664;23.594;2022-09-09T14:11:18;95354.41;;;34.19;28.63
23172;BME280;11754;42.664;23.594;2022-09-09T14:13:43;95351.19;;;35.22;27.80
23172;BME280;11754;42.664;23.594;2022-09-09T14:16:09;95330.94;;;36.20;26.54
23172;BME280;11754;42.664;23.594;2022-09-09T14:18:35;95326.13;;;36.80;25.84
23172;BME280;11754;42.664;23.594;2022-09-09T14:21:00;95344.13;;;37.11;25.27
23172;BME280;11754;42.664;23.594;2022-09-09T14:23:28;95340.78;;;37.38;25.09
23172;BME280;11754;42.664;23.594;2022-09-09T14:25:54;95335.31;;;37.75;24.54
23172;BME280;11754;42.664;23.594;2022-09-09T14:28:20;95341.78;;;38.16;24.93
23172;BME280;11754;42.664;23.594;2022-09-09T14:30:45;95342.78;;;38.76;23.91
23172;BME280;11754;42.664;23.594;2022-09-09T14:33:13;95346.38;;;39.33;22.38
23172;BME280;11754;42.664;23.594;2022-09-09T14:35:39;95328.03;;;39.40;22.40
23172;BME280;11754;42.664;23.594;2022-09-09T14:38:06;95330.00;;;39.56;22.67
23172;BME280;11754;42.664;23.594;2022-09-09T14:40:31;95339.16;;;39.44;22.92
23172;BME280;11754;42.664;23.594;2022-09-09T14:42:59;95334.34;;;38.97;23.42
23172;BME280;11754;42.664;23.594;2022-09-09T14:45:24;95333.31;;;38.61;22.84
23172;BME280;11754;42.664;23.594;2022-09-09T14:47:51;95320.50;;;36.97;25.23
23172;BME280;11754;42.664;23.594;2022-09-09T14:50:17;95332.94;;;36.95;26.06
23172;BME280;11754;42.664;23.594;2022-09-09T14:52:42;95329.34;;;37.03;24.96
23172;BME280;11754;42.664;23.594;2022-09-09T14:55:08;95329.81;;;38.36;23.54
23172;BME280;11754;42.664;23.594;2022-09-09T14:57:33;95319.06;;;37.24;24.83